sensor_id;sensor_type;location;lat;lon;timestamp;P1;durP1;ratioP1;P2;durP2;ratioP2
71395;SDS011;59888;55.814;37.132;2023-04-03T00:01:29;14.32;;;7.75;;
71395;SDS011;59888;55.814;37.132;2023-04-03T00:03:58;11.52;;;8.05;;
71395;SDS011;59888;55.814;37.132;2023-04-03T00:06:24;11.70;;;7.43;;
71395;SDS011;59888;55.814;37.132;2023-04-03T00:08:51;11.20;;;7.25;;
71395;SDS011;59888;55.814;37.132;2023-04-03T00:11:18;12.35;;;7.55;;
71395;SDS011;59888;55.814;37.132;2023-04-03T00:13:45;11.40;;;7.28;;
71395;SDS011;59888;55.814;37.132;2023-04-03T00:16:11;13.75;;;7.70;;
71395;SDS011;59888;55.814;37.132;2023-04-03T00:18:37;12.82;;;7.82;;
71395;SDS011;59888;55.814;37.132;2023-04-03T00:21:04;12.68;;;7.85;;
71395;SDS011;59888;55.814;37.132;2023-04-03T00:23:31;11.25;;;7.22;;
71395;SDS011;59888;55.814;37.132;2023-04-03T00:25:57;14.27;;;7.57;;
71395;SDS011;59888;55.814;37.132;2023-04-03T00:28:23;14.52;;;8.25;;
71395;SDS011;59888;55.814;37.132;2023-04-03T00:30:49;12.93;;;8.45;;
71395;SDS011;59888;55.814;37.132;2023-04-03T00:33:16;12.80;;;7.95;;
71395;SDS011;59888;55.814;37.132;2023-04-03T00:35:42;13.25;;;7.57;;
71395;SDS011;59888;55.814;37.132;2023-04-03T00:38:08;14.00;;;8.02;;
71395;SDS011;59888;55.814;37.132;2023-04-03T00:40:36;13.20;;;8.00;;
71395;SDS011;59888;55.814;37.132;2023-04-03T00:43:08;13.30;;;8.80;;
71395;SDS011;59888;55.814;37.132;2023-04-03T00:45:45;13.07;;;8.77;;
71395;SDS011;59888;55.814;37.132;2023-04-03T00:48:17;13.63;;;8.30;;
71395;SDS011;59888;55.814;37.132;2023-04-03T00:50:46;13.55;;;8.18;;
71395;SDS011;59888;55.814;37.132;2023-04-03T00:53:17;14.00;;;8.55;;
71395;SDS011;59888;55.814;37.132;2023-04-03T00:55:47;13.48;;;9.38;;
71395;SDS011;59888;55.814;37.132;2023-04-03T00:58:15;15.15;;;8.90;;
71395;SDS011;59888;55.814;37.132;2023-04-03T01:00:43;17.70;;;9.68;;
71395;SDS011;59888;55.814;37.132;2023-04-03T01:03:14;15.05;;;9.95;;
71395;SDS011;59888;55.814;37.132;2023-04-03T01:05:40;15.95;;;9.50;;
71395;SDS011;59888;55.814;37.132;2023-04-03T01:08:06;15.45;;;9.82;;
71395;SDS011;59888;55.814;37.132;2023-04-03T01:10:32;15.88;;;9.40;;
71395;SDS011;59888;55.814;37.132;2023-04-03T01:12:58;14.13;;;8.82;;
71395;SDS011;59888;55.814;37.132;2023-04-03T01:15:26;12.95;;;9.02;;
71395;SDS011;59888;55.814;37.132;2023-04-03T01:17:58;15.80;;;9.45;;
71395;SDS011;59888;55.814;37.132;2023-04-03T01:25:37;12.45;;;8.65;;
71395;SDS011;59888;55.814;37.132;2023-04-03T01:28:05;15.38;;;9.38;;
71395;SDS011;59888;55.814;37.132;2023-04-03T01:30:34;17.15;;;9.68;;
71395;SDS011;59888;55.814;37.132;2023-04-03T01:33:08;16.17;;;9.60;;
71395;SDS011;59888;55.814;37.132;2023-04-03T01:35:34;14.75;;;9.68;;
71395;SDS011;59888;55.814;37.132;2023-04-03T01:38:00;14.63;;;9.52;;
71395;SDS011;59888;55.814;37.132;2023-04-03T01:40:26;16.25;;;9.88;;
71395;SDS011;59888;55.814;37.132;2023-04-03T01:42:52;18.00;;;9.82;;
71395;SDS011;59888;55.814;37.132;2023-04-03T01:45:18;14.90;;;9.32;;
71395;SDS011;59888;55.814;37.132;2023-04-03T01:47:44;16.15;;;10.10;;
71395;SDS011;59888;55.814;37.132;2023-04-03T01:50:10;16.63;;;9.30;;
71395;SDS011;59888;55.814;37.132;2023-04-03T01:52:36;17.63;;;8.85;;
71395;SDS011;59888;55.814;37.132;2023-04-03T01:55:02;16.05;;;9.85;;
71395;SDS011;59888;55.814;37.132;2023-04-03T01:57:28;16.60;;;9.55;;
71395;SDS011;59888;55.814;37.132;2023-04-03T01:59:54;17.45;;;9.82;;
71395;SDS011;59888;55.814;37.132;2023-04-03T02:02:20;18.85;;;9.93;;
71395;SDS011;59888;55.814;37.132;2023-04-03T02:04:46;17.95;;;9.82;;
71395;SDS011;59888;55.814;37.132;2023-04-03T02:07:12;16.30;;;10.25;;
71395;SDS011;59888;55.814;37.132;2023-04-03T02:09:40;15.00;;;9.82;;
71395;SDS011;59888;55.814;37.132;2023-04-03T02:12:08;17.15;;;9.55;;
71395;SDS011;59888;55.814;37.132;2023-04-03T02:14:34;15.23;;;9.90;;
71395;SDS011;59888;55.814;37.132;2023-04-03T02:17:00;15.25;;;9.95;;
71395;SDS011;59888;55.814;37.132;2023-04-03T02:19:30;18.42;;;10.07;;
71395;SDS011;59888;55.814;37.132;2023-04-03T02:21:56;15.50;;;9.35;;
71395;SDS011;59888;55.814;37.132;2023-04-03T02:24:22;18.40;;;9.73;;
71395;SDS011;59888;55.814;37.132;2023-04-03T02:26:48;16.08;;;9.35;;
71395;SDS011;59888;55.814;37.132;2023-04-03T02:29:14;15.95;;;9.40;;
71395;SDS011;59888;55.814;37.132;2023-04-03T02:31:40;14.77;;;9.20;;
71395;SDS011;59888;55.814;37.132;2023-04-03T02:34:06;15.63;;;9.30;;
71395;SDS011;59888;55.814;37.132;2023-04-03T02:36:34;14.98;;;9.45;;
71395;SDS011;59888;55.814;37.132;2023-04-03T02:39:04;14.63;;;8.85;;
71395;SDS011;59888;55.814;37.132;2023-04-03T02:41:30;18.20;;;9.18;;
71395;SDS011;59888;55.814;37.132;2023-04-03T02:44:09;15.77;;;9.60;;
71395;SDS011;59888;55.814;37.132;2023-04-03T02:46:36;16.77;;;8.77;;
71395;SDS011;59888;55.814;37.132;2023-04-03T02:49:02;18.27;;;9.15;;
71395;SDS011;59888;55.814;37.132;2023-04-03T02:51:29;15.63;;;9.18;;
71395;SDS011;59888;55.814;37.132;2023-04-03T02:53:55;14.43;;;9.30;;
71395;SDS011;59888;55.814;37.132;2023-04-03T02:56:26;15.75;;;9.07;;
71395;SDS011;59888;55.814;37.132;2023-04-03T02:58:52;16.70;;;9.35;;
71395;SDS011;59888;55.814;37.132;2023-04-03T03:01:19;17.60;;;9.18;;
71395;SDS011;59888;55.814;37.132;2023-04-03T03:03:45;14.02;;;9.35;;
71395;SDS011;59888;55.814;37.132;2023-04-03T03:06:12;15.25;;;8.88;;
71395;SDS011;59888;55.814;37.132;2023-04-03T03:08:40;15.10;;;8.50;;
71395;SDS011;59888;55.814;37.132;2023-04-03T03:11:06;13.75;;;8.50;;
71395;SDS011;59888;55.814;37.132;2023-04-03T03:13:32;13.82;;;8.45;;
71395;SDS011;59888;55.814;37.132;2023-04-03T03:15:59;16.58;;;10.05;;
71395;SDS011;59888;55.814;37.132;2023-04-03T03:18:25;17.05;;;9.25;;
71395;SDS011;59888;55.814;37.132;2023-04-03T03:20:52;17.13;;;9.35;;
71395;SDS011;59888;55.814;37.132;2023-04-03T03:23:20;14.63;;;8.70;;
71395;SDS011;59888;55.814;37.132;2023-04-03T03:25:47;17.55;;;8.95;;
71395;SDS011;59888;55.814;37.132;2023-04-03T03:28:13;16.58;;;10.02;;
71395;SDS011;59888;55.814;37.132;2023-04-03T03:30:39;16.75;;;9.57;;
71395;SDS011;59888;55.814;37.132;2023-04-03T03:33:05;12.65;;;7.88;;
71395;SDS011;59888;55.814;37.132;2023-04-03T03:35:31;16.50;;;8.90;;
71395;SDS011;59888;55.814;37.132;2023-04-03T03:37:57;14.30;;;8.77;;
71395;SDS011;59888;55.814;37.132;2023-04-03T03:40:23;14.48;;;8.77;;
71395;SDS011;59888;55.814;37.132;2023-04-03T03:42:49;15.20;;;8.98;;
71395;SDS011;59888;55.814;37.132;2023-04-03T03:45:15;14.00;;;8.70;;
71395;SDS011;59888;55.814;37.132;2023-04-03T03:47:41;14.45;;;8.32;;
71395;SDS011;59888;55.814;37.132;2023-04-03T03:50:07;12.82;;;8.43;;
71395;SDS011;59888;55.814;37.132;2023-04-03T03:52:33;14.07;;;8.07;;
71395;SDS011;59888;55.814;37.132;2023-04-03T03:55:00;13.07;;;8.00;;
71395;SDS011;59888;55.814;37.132;2023-04-03T03:57:25;14.90;;;8.45;;
71395;SDS011;59888;55.814;37.132;2023-04-03T03:59:54;16.67;;;8.63;;
71395;SDS011;59888;55.814;37.132;2023-04-03T04:02:20;13.23;;;7.95;;
71395;SDS011;59888;55.814;37.132;2023-04-03T04:04:46;14.55;;;8.38;;
71395;SDS011;59888;55.814;37.132;2023-04-03T04:07:13;15.30;;;7.68;;
71395;SDS011;59888;55.814;37.132;2023-04-03T04:09:40;12.52;;;8.18;;
71395;SDS011;59888;55.814;37.132;2023-04-03T04:12:07;11.75;;;7.90;;
71395;SDS011;59888;55.814;37.132;2023-04-03T04:14:35;15.02;;;8.20;;
71395;SDS011;59888;55.814;37.132;2023-04-03T04:17:01;13.15;;;8.13;;
71395;SDS011;59888;55.814;37.132;2023-04-03T04:19:28;13.88;;;8.50;;
71395;SDS011;59888;55.814;37.132;2023-04-03T04:21:54;15.65;;;8.18;;
71395;SDS011;59888;55.814;37.132;2023-04-03T04:24:20;13.98;;;8.57;;
71395;SDS011;59888;55.814;37.132;2023-04-03T04:26:49;14.02;;;8.60;;
71395;SDS011;59888;55.814;37.132;2023-04-03T04:29:16;13.15;;;8.35;;
71395;SDS011;59888;55.814;37.132;2023-04-03T04:31:45;15.82;;;7.85;;
71395;SDS011;59888;55.814;37.132;2023-04-03T04:34:11;14.75;;;8.90;;
71395;SDS011;59888;55.814;37.132;2023-04-03T04:36:38;14.77;;;8.48;;
71395;SDS011;59888;55.814;37.132;2023-04-03T04:39:05;16.58;;;8.70;;
71395;SDS011;59888;55.814;37.132;2023-04-03T04:41:31;13.07;;;8.57;;
71395;SDS011;59888;55.814;37.132;2023-04-03T04:43:58;16.15;;;8.25;;
71395;SDS011;59888;55.814;37.132;2023-04-03T04:46:25;17.27;;;9.00;;
71395;SDS011;59888;55.814;37.132;2023-04-03T04:48:56;14.30;;;8.18;;
71395;SDS011;59888;55.814;37.132;2023-04-03T04:51:24;16.92;;;8.60;;
71395;SDS011;59888;55.814;37.132;2023-04-03T04:53:50;15.70;;;8.55;;
71395;SDS011;59888;55.814;37.132;2023-04-03T04:56:18;14.23;;;8.57;;
71395;SDS011;59888;55.814;37.132;2023-04-03T04:58:45;15.70;;;9.00;;
71395;SDS011;59888;55.814;37.132;2023-04-03T05:01:11;16.23;;;8.75;;
71395;SDS011;59888;55.814;37.132;2023-04-03T05:03:51;15.07;;;8.52;;
71395;SDS011;59888;55.814;37.132;2023-04-03T05:06:18;14.95;;;8.80;;
71395;SDS011;59888;55.814;37.132;2023-04-03T05:08:44;15.68;;;9.27;;
71395;SDS011;59888;55.814;37.132;2023-04-03T05:11:10;17.00;;;9.55;;
71395;SDS011;59888;55.814;37.132;2023-04-03T05:13:37;16.25;;;9.35;;
71395;SDS011;59888;55.814;37.132;2023-04-03T05:16:03;16.52;;;9.45;;
71395;SDS011;59888;55.814;37.132;2023-04-03T05:18:30;16.52;;;9.32;;
71395;SDS011;59888;55.814;37.132;2023-04-03T05:20:59;17.95;;;9.90;;
71395;SDS011;59888;55.814;37.132;2023-04-03T05:23:26;15.10;;;9.82;;
71395;SDS011;59888;55.814;37.132;2023-04-03T05:25:52;13.70;;;9.23;;
71395;SDS011;59888;55.814;37.132;2023-04-03T05:28:19;17.52;;;9.93;;
71395;SDS011;59888;55.814;37.132;2023-04-03T05:30:45;17.85;;;9.88;;
71395;SDS011;59888;55.814;37.132;2023-04-03T05:33:11;17.65;;;10.27;;
71395;SDS011;59888;55.814;37.132;2023-04-03T05:38:16;15.23;;;9.63;;
71395;SDS011;59888;55.814;37.132;2023-04-03T05:40:43;13.45;;;9.27;;
71395;SDS011;59888;55.814;37.132;2023-04-03T05:43:08;16.08;;;9.43;;
71395;SDS011;59888;55.814;37.132;2023-04-03T05:45:37;15.75;;;9.18;;
71395;SDS011;59888;55.814;37.132;2023-04-03T05:48:03;18.73;;;9.25;;
71395;SDS011;59888;55.814;37.132;2023-04-03T05:50:30;14.82;;;9.23;;
71395;SDS011;59888;55.814;37.132;2023-04-03T05:52:57;15.25;;;9.15;;
71395;SDS011;59888;55.814;37.132;2023-04-03T05:55:26;17.30;;;9.02;;
71395;SDS011;59888;55.814;37.132;2023-04-03T05:57:52;15.48;;;9.50;;
71395;SDS011;59888;55.814;37.132;2023-04-03T06:00:19;15.30;;;9.20;;
71395;SDS011;59888;55.814;37.132;2023-04-03T06:02:56;15.43;;;9.50;;
71395;SDS011;59888;55.814;37.132;2023-04-03T06:05:24;14.65;;;9.50;;
71395;SDS011;59888;55.814;37.132;2023-04-03T06:07:49;20.05;;;11.63;;
71395;SDS011;59888;55.814;37.132;2023-04-03T06:10:16;17.10;;;10.15;;
71395;SDS011;59888;55.814;37.132;2023-04-03T06:12:43;21.15;;;10.48;;
71395;SDS011;59888;55.814;37.132;2023-04-03T06:15:10;18.75;;;9.93;;
71395;SDS011;59888;55.814;37.132;2023-04-03T06:17:39;14.77;;;9.07;;
71395;SDS011;59888;55.814;37.132;2023-04-03T06:20:07;15.77;;;9.80;;
71395;SDS011;59888;55.814;37.132;2023-04-03T06:22:33;16.77;;;9.77;;
71395;SDS011;59888;55.814;37.132;2023-04-03T06:25:00;16.02;;;9.82;;
71395;SDS011;59888;55.814;37.132;2023-04-03T06:27:28;17.17;;;9.77;;
71395;SDS011;59888;55.814;37.132;2023-04-03T06:29:54;19.27;;;10.18;;
71395;SDS011;59888;55.814;37.132;2023-04-03T06:32:19;17.92;;;10.65;;
71395;SDS011;59888;55.814;37.132;2023-04-03T06:34:45;18.63;;;10.23;;
71395;SDS011;59888;55.814;37.132;2023-04-03T06:37:18;18.73;;;10.77;;
71395;SDS011;59888;55.814;37.132;2023-04-03T06:39:46;17.00;;;11.00;;
71395;SDS011;59888;55.814;37.132;2023-04-03T06:42:12;18.77;;;10.60;;
71395;SDS011;59888;55.814;37.132;2023-04-03T06:44:47;17.67;;;10.43;;
71395;SDS011;59888;55.814;37.132;2023-04-03T06:47:13;18.60;;;9.85;;
71395;SDS011;59888;55.814;37.132;2023-04-03T06:49:40;14.07;;;9.02;;
71395;SDS011;59888;55.814;37.132;2023-04-03T06:52:06;16.80;;;9.48;;
71395;SDS011;59888;55.814;37.132;2023-04-03T06:54:32;20.98;;;10.13;;
71395;SDS011;59888;55.814;37.132;2023-04-03T06:56:59;15.13;;;9.38;;
71395;SDS011;59888;55.814;37.132;2023-04-03T06:59:25;17.73;;;10.18;;
71395;SDS011;59888;55.814;37.132;2023-04-03T07:01:51;18.70;;;10.27;;
71395;SDS011;59888;55.814;37.132;2023-04-03T07:04:17;18.63;;;10.63;;
71395;SDS011;59888;55.814;37.132;2023-04-03T07:06:45;16.70;;;9.68;;
71395;SDS011;59888;55.814;37.132;2023-04-03T07:09:12;16.65;;;9.95;;
71395;SDS011;59888;55.814;37.132;2023-04-03T07:11:41;19.48;;;10.63;;
71395;SDS011;59888;55.814;37.132;2023-04-03T07:14:07;18.38;;;10.38;;
71395;SDS011;59888;55.814;37.132;2023-04-03T07:16:33;20.35;;;11.00;;
71395;SDS011;59888;55.814;37.132;2023-04-03T07:19:00;18.67;;;10.18;;
71395;SDS011;59888;55.814;37.132;2023-04-03T07:21:27;16.90;;;10.00;;
71395;SDS011;59888;55.814;37.132;2023-04-03T07:23:53;20.70;;;10.88;;
71395;SDS011;59888;55.814;37.132;2023-04-03T07:26:19;18.45;;;10.45;;
71395;SDS011;59888;55.814;37.132;2023-04-03T07:28:46;18.40;;;10.55;;
71395;SDS011;59888;55.814;37.132;2023-04-03T07:31:14;18.85;;;10.80;;
71395;SDS011;59888;55.814;37.132;2023-04-03T07:33:41;17.40;;;10.30;;
71395;SDS011;59888;55.814;37.132;2023-04-03T07:36:07;17.75;;;11.30;;
71395;SDS011;59888;55.814;37.132;2023-04-03T07:38:34;16.42;;;10.38;;
71395;SDS011;59888;55.814;37.132;2023-04-03T07:41:01;19.63;;;10.85;;
71395;SDS011;59888;55.814;37.132;2023-04-03T07:43:27;20.55;;;10.57;;
71395;SDS011;59888;55.814;37.132;2023-04-03T07:45:53;17.20;;;10.27;;
71395;SDS011;59888;55.814;37.132;2023-04-03T07:48:20;18.52;;;9.70;;
71395;SDS011;59888;55.814;37.132;2023-04-03T07:50:50;15.90;;;10.05;;
71395;SDS011;59888;55.814;37.132;2023-04-03T07:53:16;16.85;;;11.13;;
71395;SDS011;59888;55.814;37.132;2023-04-03T07:55:45;19.75;;;10.63;;
71395;SDS011;59888;55.814;37.132;2023-04-03T07:58:14;18.38;;;10.32;;
71395;SDS011;59888;55.814;37.132;2023-04-03T08:00:41;18.58;;;9.75;;
71395;SDS011;59888;55.814;37.132;2023-04-03T08:03:09;22.42;;;11.20;;
71395;SDS011;59888;55.814;37.132;2023-04-03T08:05:39;16.73;;;10.35;;
71395;SDS011;59888;55.814;37.132;2023-04-03T08:08:07;21.45;;;10.27;;
71395;SDS011;59888;55.814;37.132;2023-04-03T08:10:33;20.20;;;9.85;;
71395;SDS011;59888;55.814;37.132;2023-04-03T08:13:00;18.05;;;9.85;;
71395;SDS011;59888;55.814;37.132;2023-04-03T08:15:26;17.50;;;9.68;;
71395;SDS011;59888;55.814;37.132;2023-04-03T08:17:52;15.77;;;9.80;;
71395;SDS011;59888;55.814;37.132;2023-04-03T08:20:19;18.75;;;9.75;;
71395;SDS011;59888;55.814;37.132;2023-04-03T08:22:45;19.42;;;9.10;;
71395;SDS011;59888;55.814;37.132;2023-04-03T08:25:11;21.58;;;9.60;;
71395;SDS011;59888;55.814;37.132;2023-04-03T08:27:37;26.73;;;9.73;;
71395;SDS011;59888;55.814;37.132;2023-04-03T08:30:03;18.38;;;9.68;;
71395;SDS011;59888;55.814;37.132;2023-04-03T08:32:30;17.08;;;9.55;;
71395;SDS011;59888;55.814;37.132;2023-04-03T08:34:55;17.48;;;9.15;;
71395;SDS011;59888;55.814;37.132;2023-04-03T08:37:21;15.40;;;9.25;;
71395;SDS011;59888;55.814;37.132;2023-04-03T08:39:47;19.50;;;9.52;;
71395;SDS011;59888;55.814;37.132;2023-04-03T08:42:56;15.23;;;9.10;;
71395;SDS011;59888;55.814;37.132;2023-04-03T08:47:46;18.65;;;9.38;;
71395;SDS011;59888;55.814;37.132;2023-04-03T08:50:28;18.02;;;8.75;;
71395;SDS011;59888;55.814;37.132;2023-04-03T08:52:59;15.13;;;9.27;;
71395;SDS011;59888;55.814;37.132;2023-04-03T08:55:30;17.15;;;9.48;;
71395;SDS011;59888;55.814;37.132;2023-04-03T08:58:06;15.82;;;9.80;;
71395;SDS011;59888;55.814;37.132;2023-04-03T09:00:58;17.90;;;8.57;;
71395;SDS011;59888;55.814;37.132;2023-04-03T09:03:31;17.63;;;9.27;;
71395;SDS011;59888;55.814;37.132;2023-04-03T09:08:33;17.63;;;9.18;;
71395;SDS011;59888;55.814;37.132;2023-04-03T09:13:41;16.38;;;9.15;;
71395;SDS011;59888;55.814;37.132;2023-04-03T09:16:17;17.05;;;9.13;;
71395;SDS011;59888;55.814;37.132;2023-04-03T09:18:51;18.50;;;9.13;;
71395;SDS011;59888;55.814;37.132;2023-04-03T09:21:26;16.50;;;9.00;;
71395;SDS011;59888;55.814;37.132;2023-04-03T09:24:02;18.48;;;9.27;;
71395;SDS011;59888;55.814;37.132;2023-04-03T09:26:41;21.50;;;9.80;;
71395;SDS011;59888;55.814;37.132;2023-04-03T09:29:08;16.95;;;10.13;;
71395;SDS011;59888;55.814;37.132;2023-04-03T09:31:42;17.07;;;9.43;;
71395;SDS011;59888;55.814;37.132;2023-04-03T09:34:44;41.85;;;19.98;;
71395;SDS011;59888;55.814;37.132;2023-04-03T09:37:04;17.23;;;10.02;;
71395;SDS011;59888;55.814;37.132;2023-04-03T09:39:50;22.77;;;10.35;;
71395;SDS011;59888;55.814;37.132;2023-04-03T09:42:19;23.52;;;9.55;;
71395;SDS011;59888;55.814;37.132;2023-04-03T09:44:57;22.45;;;10.70;;
71395;SDS011;59888;55.814;37.132;2023-04-03T09:50:35;19.55;;;10.40;;
71395;SDS011;59888;55.814;37.132;2023-04-03T09:52:54;22.58;;;10.07;;
71395;SDS011;59888;55.814;37.132;2023-04-03T09:55:24;16.50;;;9.48;;
71395;SDS011;59888;55.814;37.132;2023-04-03T09:57:58;19.55;;;10.45;;
71395;SDS011;59888;55.814;37.132;2023-04-03T10:00:35;19.40;;;9.90;;
71395;SDS011;59888;55.814;37.132;2023-04-03T10:03:03;19.77;;;9.77;;
71395;SDS011;59888;55.814;37.132;2023-04-03T10:10:39;29.10;;;10.30;;
71395;SDS011;59888;55.814;37.132;2023-04-03T10:13:07;21.48;;;10.10;;
71395;SDS011;59888;55.814;37.132;2023-04-03T10:15:41;28.13;;;11.07;;
71395;SDS011;59888;55.814;37.132;2023-04-03T10:18:18;23.63;;;10.18;;
71395;SDS011;59888;55.814;37.132;2023-04-03T10:21:10;23.65;;;10.35;;
71395;SDS011;59888;55.814;37.132;2023-04-03T10:24:02;21.38;;;9.15;;
71395;SDS011;59888;55.814;37.132;2023-04-03T10:34:42;23.65;;;9.98;;
71395;SDS011;59888;55.814;37.132;2023-04-03T10:42:50;15.95;;;8.30;;
71395;SDS011;59888;55.814;37.132;2023-04-03T10:48:14;23.00;;;9.73;;
71395;SDS011;59888;55.814;37.132;2023-04-03T10:56:15;20.52;;;9.48;;
71395;SDS011;59888;55.814;37.132;2023-04-03T10:58:55;21.92;;;8.95;;
71395;SDS011;59888;55.814;37.132;2023-04-03T11:01:30;20.65;;;9.93;;
71395;SDS011;59888;55.814;37.132;2023-04-03T11:03:59;23.17;;;9.77;;
71395;SDS011;59888;55.814;37.132;2023-04-03T11:06:31;17.77;;;8.55;;
71395;SDS011;59888;55.814;37.132;2023-04-03T11:09:17;21.20;;;9.23;;
71395;SDS011;59888;55.814;37.132;2023-04-03T11:11:51;16.27;;;8.60;;
71395;SDS011;59888;55.814;37.132;2023-04-03T11:14:33;16.67;;;8.57;;
71395;SDS011;59888;55.814;37.132;2023-04-03T11:17:05;17.35;;;8.52;;
71395;SDS011;59888;55.814;37.132;2023-04-03T11:27:41;17.47;;;8.37;;
71395;SDS011;59888;55.814;37.132;2023-04-03T11:30:44;16.75;;;7.70;;
71395;SDS011;59888;55.814;37.132;2023-04-03T11:38:55;12.25;;;7.35;;
71395;SDS011;59888;55.814;37.132;2023-04-03T11:41:30;16.75;;;7.90;;
71395;SDS011;59888;55.814;37.132;2023-04-03T11:46:48;16.08;;;7.82;;
71395;SDS011;59888;55.814;37.132;2023-04-03T11:50:23;20.00;;;8.57;;
71395;SDS011;59888;55.814;37.132;2023-04-03T12:24:27;21.90;;;8.88;;
71395;SDS011;59888;55.814;37.132;2023-04-03T12:27:03;18.58;;;8.23;;
71395;SDS011;59888;55.814;37.132;2023-04-03T12:29:55;21.02;;;8.43;;
71395;SDS011;59888;55.814;37.132;2023-04-03T12:38:22;19.92;;;8.13;;
71395;SDS011;59888;55.814;37.132;2023-04-03T12:44:05;14.50;;;8.10;;
71395;SDS011;59888;55.814;37.132;2023-04-03T12:46:53;24.67;;;8.63;;
71395;SDS011;59888;55.814;37.132;2023-04-03T12:55:32;17.60;;;7.00;;
71395;SDS011;59888;55.814;37.132;2023-04-03T13:03:27;16.38;;;6.55;;
71395;SDS011;59888;55.814;37.132;2023-04-03T13:05:58;20.88;;;7.97;;
71395;SDS011;59888;55.814;37.132;2023-04-03T13:08:29;18.60;;;7.05;;
71395;SDS011;59888;55.814;37.132;2023-04-03T13:11:09;18.70;;;7.78;;
71395;SDS011;59888;55.814;37.132;2023-04-03T13:13:37;14.77;;;7.18;;
71395;SDS011;59888;55.814;37.132;2023-04-03T13:16:08;19.42;;;7.53;;
71395;SDS011;59888;55.814;37.132;2023-04-03T13:18:37;15.32;;;7.45;;
71395;SDS011;59888;55.814;37.132;2023-04-03T13:21:07;18.85;;;6.80;;
71395;SDS011;59888;55.814;37.132;2023-04-03T13:23:56;18.15;;;7.47;;
71395;SDS011;59888;55.814;37.132;2023-04-03T13:26:25;14.77;;;7.57;;
71395;SDS011;59888;55.814;37.132;2023-04-03T13:28:56;17.65;;;7.13;;
71395;SDS011;59888;55.814;37.132;2023-04-03T13:31:27;17.75;;;7.03;;
71395;SDS011;59888;55.814;37.132;2023-04-03T13:36:33;16.00;;;6.88;;
71395;SDS011;59888;55.814;37.132;2023-04-03T13:39:03;16.23;;;6.40;;
71395;SDS011;59888;55.814;37.132;2023-04-03T13:41:39;12.77;;;6.32;;
71395;SDS011;59888;55.814;37.132;2023-04-03T13:46:42;11.13;;;6.32;;
71395;SDS011;59888;55.814;37.132;2023-04-03T13:49:19;14.68;;;7.63;;
71395;SDS011;59888;55.814;37.132;2023-04-03T13:51:47;14.82;;;6.78;;
71395;SDS011;59888;55.814;37.132;2023-04-03T13:54:21;16.08;;;7.18;;
71395;SDS011;59888;55.814;37.132;2023-04-03T13:57:12;16.48;;;7.18;;
71395;SDS011;59888;55.814;37.132;2023-04-03T13:59:40;16.63;;;7.25;;
71395;SDS011;59888;55.814;37.132;2023-04-03T14:05:07;13.02;;;6.70;;
71395;SDS011;59888;55.814;37.132;2023-04-03T14:07:34;14.73;;;7.78;;
71395;SDS011;59888;55.814;37.132;2023-04-03T14:10:00;17.25;;;8.40;;
71395;SDS011;59888;55.814;37.132;2023-04-03T14:12:27;19.17;;;8.13;;
71395;SDS011;59888;55.814;37.132;2023-04-03T14:14:59;17.25;;;8.23;;
71395;SDS011;59888;55.814;37.132;2023-04-03T14:17:26;15.70;;;8.18;;
71395;SDS011;59888;55.814;37.132;2023-04-03T14:19:53;21.38;;;8.82;;
71395;SDS011;59888;55.814;37.132;2023-04-03T14:24:49;21.02;;;10.13;;
71395;SDS011;59888;55.814;37.132;2023-04-03T14:29:42;18.95;;;9.88;;
71395;SDS011;59888;55.814;37.132;2023-04-03T14:32:10;16.80;;;8.70;;
71395;SDS011;59888;55.814;37.132;2023-04-03T14:34:38;21.60;;;10.07;;
71395;SDS011;59888;55.814;37.132;2023-04-03T14:37:08;21.23;;;9.82;;
71395;SDS011;59888;55.814;37.132;2023-04-03T14:39:36;16.00;;;9.30;;
71395;SDS011;59888;55.814;37.132;2023-04-03T14:42:02;20.38;;;9.65;;
71395;SDS011;59888;55.814;37.132;2023-04-03T14:44:28;17.80;;;10.18;;
71395;SDS011;59888;55.814;37.132;2023-04-03T14:46:54;16.48;;;8.30;;
71395;SDS011;59888;55.814;37.132;2023-04-03T14:49:22;15.73;;;6.90;;
71395;SDS011;59888;55.814;37.132;2023-04-03T14:51:53;14.63;;;6.45;;
71395;SDS011;59888;55.814;37.132;2023-04-03T14:54:20;13.02;;;5.97;;
71395;SDS011;59888;55.814;37.132;2023-04-03T14:56:51;13.95;;;5.45;;
71395;SDS011;59888;55.814;37.132;2023-04-03T14:59:17;9.38;;;4.80;;
71395;SDS011;59888;55.814;37.132;2023-04-03T15:01:49;13.63;;;4.93;;
71395;SDS011;59888;55.814;37.132;2023-04-03T15:04:16;8.77;;;4.30;;
71395;SDS011;59888;55.814;37.132;2023-04-03T15:06:43;10.50;;;4.78;;
71395;SDS011;59888;55.814;37.132;2023-04-03T15:09:16;10.48;;;4.95;;
71395;SDS011;59888;55.814;37.132;2023-04-03T15:11:53;12.35;;;4.90;;
71395;SDS011;59888;55.814;37.132;2023-04-03T15:14:20;11.05;;;4.93;;
71395;SDS011;59888;55.814;37.132;2023-04-03T15:16:46;12.85;;;4.80;;
71395;SDS011;59888;55.814;37.132;2023-04-03T15:19:13;9.18;;;4.57;;
71395;SDS011;59888;55.814;37.132;2023-04-03T15:21:39;8.82;;;5.07;;
71395;SDS011;59888;55.814;37.132;2023-04-03T15:24:05;13.02;;;4.90;;
71395;SDS011;59888;55.814;37.132;2023-04-03T15:26:31;11.95;;;5.97;;
71395;SDS011;59888;55.814;37.132;2023-04-03T15:28:58;11.38;;;5.35;;
71395;SDS011;59888;55.814;37.132;2023-04-03T15:31:24;14.40;;;6.00;;
71395;SDS011;59888;55.814;37.132;2023-04-03T15:33:50;13.95;;;5.40;;
71395;SDS011;59888;55.814;37.132;2023-04-03T15:36:16;14.48;;;6.10;;
71395;SDS011;59888;55.814;37.132;2023-04-03T15:38:42;12.02;;;5.60;;
71395;SDS011;59888;55.814;37.132;2023-04-03T15:41:07;21.17;;;5.55;;
71395;SDS011;59888;55.814;37.132;2023-04-03T15:43:33;17.42;;;6.00;;
71395;SDS011;59888;55.814;37.132;2023-04-03T15:46:00;14.63;;;5.80;;
71395;SDS011;59888;55.814;37.132;2023-04-03T15:48:27;13.10;;;6.25;;
71395;SDS011;59888;55.814;37.132;2023-04-03T15:50:54;18.90;;;8.70;;
71395;SDS011;59888;55.814;37.132;2023-04-03T15:53:20;23.17;;;9.68;;
71395;SDS011;59888;55.814;37.132;2023-04-03T15:55:45;23.00;;;10.52;;
71395;SDS011;59888;55.814;37.132;2023-04-03T15:58:11;21.13;;;10.52;;
71395;SDS011;59888;55.814;37.132;2023-04-03T16:00:37;24.98;;;9.52;;
71395;SDS011;59888;55.814;37.132;2023-04-03T16:03:10;19.50;;;10.85;;
71395;SDS011;59888;55.814;37.132;2023-04-03T16:05:46;20.75;;;9.48;;
71395;SDS011;59888;55.814;37.132;2023-04-03T16:08:12;19.88;;;11.10;;
71395;SDS011;59888;55.814;37.132;2023-04-03T16:10:38;18.83;;;9.88;;
71395;SDS011;59888;55.814;37.132;2023-04-03T16:13:06;17.75;;;9.75;;
71395;SDS011;59888;55.814;37.132;2023-04-03T16:15:32;19.02;;;9.57;;
71395;SDS011;59888;55.814;37.132;2023-04-03T16:17:59;21.95;;;9.98;;
71395;SDS011;59888;55.814;37.132;2023-04-03T16:20:25;21.20;;;10.35;;
71395;SDS011;59888;55.814;37.132;2023-04-03T16:22:52;20.45;;;10.68;;
71395;SDS011;59888;55.814;37.132;2023-04-03T16:25:18;16.58;;;10.07;;
71395;SDS011;59888;55.814;37.132;2023-04-03T16:27:45;20.63;;;11.13;;
71395;SDS011;59888;55.814;37.132;2023-04-03T16:30:11;17.77;;;10.10;;
71395;SDS011;59888;55.814;37.132;2023-04-03T16:32:37;18.05;;;10.68;;
71395;SDS011;59888;55.814;37.132;2023-04-03T16:35:05;18.08;;;10.82;;
71395;SDS011;59888;55.814;37.132;2023-04-03T16:37:31;23.48;;;11.60;;